North Randall, OH

8:33 PM EDT on August 28, 2015 (GMT -0400)
Tri-C East Campus | | Change Station
CLOSE
Current Station
Personal Weather Station
Location: Highland Hills, OH
Elevation: 1227 ft
Nearby Weather Stations

Elev 1227 ft 41.45 °N, 81.50 °W | Updated 2 minutes ago

Partly Cloudy
Partly Cloudy
66.1 °F
Feels Like 66.1 °F
N
2.0
Wind Variable Wind from ENE
Gusts 4.0 mph

Today
High -- | Low -- °F
--% Chance of Precip.
Yesterday
High -- | Low -- °F
Precip. -- in
6:48 AM 8:06 PM
Waxing Gibbous, 99% visible
Pressure 30.16 in
Visibility 10.0 miles
Clouds Scattered Clouds 15000 ft
Mostly Cloudy 20000 ft
Dew Point 58 °F
Humidity 75%
Rainfall 0.00 in
Snow Depth Not available.
UV 0 out of 12
Pollen 9.60 out of 12
Air Quality Not available.
Flu Activity Not available.
METAR KCGF 282345Z 03008KT 10SM SCT150 BKN200 20/15 A3016
Pressure 30.16 in
Visibility 10.0 miles
Clouds Scattered Clouds 15000 ft
Mostly Cloudy 20000 ft
Dew Point 58 °F
Humidity 75%
Rainfall 0.00 in
Snow Depth Not available.
UV 0 out of 12
Pollen 9.60 out of 12
Air Quality Not available.
Flu Activity Not available.
METAR KCGF 282345Z 03008KT 10SM SCT150 BKN200 20/15 A3016

10-Day Weather Forecast

×

Almanac

Astronomy

Aug. 28, 2015 Rise Set
Actual Time
Civil Twilight
Nautical Twilight
Astronomical Twilight
Moon
Length of Visible Light
Length of Day
Tomorrow will be .
, % of the Moon is Illuminated

Today's Extremes

State Highs State Lows

Community

WunderPhotos

Upload Photos

1,850,548 photos uploaded!

WunderBlogs® & News

Nearby

Air Quality

  Air Quality AQ Index Pollutant
Not available.

Snow Depth

Station Depth Elevation

Earthquake Activity

City Distance Mag. Time & Date
Minimum magnitude displayed is 2.5.

Coastal Water Temperatures

Place Temperature

Stations

Nearby Weather Stations

Station Location Temp. Windchill Dew Point Humidity Wind Precip. Elev Updated Type